createdAt,value
2023-07-06T00:00:44.474Z,0.00
2023-07-06T00:01:44.455Z,0.00
2023-07-06T00:02:44.497Z,0.00
2023-07-06T00:03:44.537Z,0.00
2023-07-06T00:04:44.446Z,0.00
2023-07-06T00:05:44.394Z,0.00
2023-07-06T00:06:44.416Z,0.00
2023-07-06T00:07:44.358Z,0.00
2023-07-06T00:08:44.369Z,0.00
2023-07-06T00:09:44.371Z,0.00
2023-07-06T00:10:44.390Z,0.00
2023-07-06T00:11:44.333Z,0.00
2023-07-06T00:12:44.347Z,0.00
2023-07-06T00:13:44.367Z,0.00
2023-07-06T00:14:44.332Z,0.00
2023-07-06T00:15:44.300Z,0.00
2023-07-06T00:16:44.523Z,0.00
2023-07-06T00:17:44.321Z,0.00
2023-07-06T00:18:44.307Z,0.00
2023-07-06T00:19:44.271Z,0.00
2023-07-06T00:20:44.299Z,0.00
2023-07-06T00:21:44.249Z,0.00
2023-07-06T00:22:44.281Z,0.00
2023-07-06T00:23:44.237Z,0.00
2023-07-06T00:24:44.242Z,0.00
2023-07-06T00:25:44.219Z,0.00
2023-07-06T00:26:44.236Z,0.00
2023-07-06T00:27:44.211Z,0.00
2023-07-06T00:28:44.208Z,0.00
2023-07-06T00:29:44.178Z,0.00
2023-07-06T00:30:44.205Z,0.00
2023-07-06T00:31:44.225Z,0.00
2023-07-06T00:32:44.226Z,0.00
2023-07-06T00:33:44.168Z,0.00
2023-07-06T00:34:44.158Z,0.00
2023-07-06T00:35:44.140Z,0.00
2023-07-06T00:36:44.137Z,0.00
2023-07-06T00:37:44.133Z,0.00
2023-07-06T00:38:44.135Z,0.00
2023-07-06T00:39:44.126Z,0.00
2023-07-06T00:40:44.117Z,0.00
2023-07-06T00:41:44.078Z,0.00
2023-07-06T00:42:46.779Z,0.00
2023-07-06T00:43:44.064Z,0.00
2023-07-06T00:44:44.067Z,0.00
2023-07-06T00:45:44.127Z,0.00
2023-07-06T00:46:44.131Z,0.00
2023-07-06T00:47:44.074Z,0.00
2023-07-06T00:48:44.033Z,0.00
2023-07-06T00:49:44.029Z,0.00
2023-07-06T00:50:44.022Z,0.00
2023-07-06T00:51:44.017Z,0.00
2023-07-06T00:52:44.011Z,0.00
2023-07-06T00:53:43.982Z,0.00
2023-07-06T00:54:43.999Z,0.00
2023-07-06T00:55:43.996Z,0.00
2023-07-06T00:56:43.983Z,0.00
2023-07-06T00:57:43.953Z,0.00
2023-07-06T00:58:43.972Z,0.00
2023-07-06T00:59:43.924Z,0.00
2023-07-06T01:00:43.948Z,0.00
2023-07-06T01:01:44.030Z,0.00
2023-07-06T01:02:43.969Z,0.00
2023-07-06T01:03:43.898Z,0.00
2023-07-06T01:04:43.893Z,0.00
2023-07-06T01:05:43.862Z,0.00
2023-07-06T01:06:43.895Z,0.00
2023-07-06T01:07:43.851Z,0.00
2023-07-06T01:08:43.865Z,0.00
2023-07-06T01:09:43.873Z,0.00
2023-07-06T01:10:43.863Z,0.00
2023-07-06T01:11:43.822Z,0.00
2023-07-06T01:12:43.825Z,0.00
2023-07-06T01:13:43.853Z,0.00
2023-07-06T01:14:43.833Z,0.00
2023-07-06T01:15:43.786Z,0.00
2023-07-06T01:16:43.787Z,0.00
2023-07-06T01:17:43.751Z,0.00
2023-07-06T01:18:43.796Z,0.00
2023-07-06T01:19:43.746Z,0.00
2023-07-06T01:20:43.748Z,0.00
2023-07-06T01:21:43.723Z,0.00
2023-07-06T01:22:43.726Z,0.00
2023-07-06T01:23:43.738Z,0.00
2023-07-06T01:24:43.742Z,0.00
2023-07-06T01:25:43.695Z,0.00
2023-07-06T01:26:43.699Z,0.00
2023-07-06T01:27:43.662Z,0.00
2023-07-06T01:28:43.698Z,0.00
2023-07-06T01:29:43.652Z,0.00
2023-07-06T01:30:43.676Z,0.00
2023-07-06T01:31:43.817Z,0.00
2023-07-06T01:32:43.686Z,0.00
2023-07-06T01:33:43.626Z,0.00
2023-07-06T01:34:43.658Z,0.00
2023-07-06T01:35:43.625Z,0.00
2023-07-06T01:36:43.627Z,0.00
2023-07-06T01:37:43.585Z,0.00
2023-07-06T01:38:43.637Z,0.00
2023-07-06T01:39:43.590Z,0.00
2023-07-06T01:40:43.577Z,0.00
2023-07-06T01:41:43.546Z,0.00
2023-07-06T01:42:43.560Z,0.00
2023-07-06T01:43:43.530Z,0.00
2023-07-06T01:44:43.577Z,0.00
2023-07-06T01:45:43.513Z,0.00
2023-07-06T01:46:43.570Z,0.00
2023-07-06T01:47:43.541Z,0.00
2023-07-06T01:48:43.509Z,0.00
2023-07-06T01:49:43.505Z,0.00
2023-07-06T01:50:43.481Z,0.00
2023-07-06T01:51:43.465Z,0.00
2023-07-06T01:52:43.461Z,0.00
2023-07-06T01:53:43.427Z,0.00
2023-07-06T01:54:43.455Z,0.00
2023-07-06T01:55:43.445Z,0.00
2023-07-06T01:56:43.422Z,0.00
2023-07-06T01:57:56.168Z,0.00
2023-07-06T01:58:44.436Z,0.00
2023-07-06T01:59:43.385Z,0.00
2023-07-06T02:00:43.440Z,0.00
2023-07-06T02:01:43.391Z,0.00
2023-07-06T02:02:43.429Z,0.00
2023-07-06T02:03:43.349Z,0.00
2023-07-06T02:04:43.360Z,0.00
2023-07-06T02:05:43.359Z,0.00
2023-07-06T02:06:43.342Z,0.00
2023-07-06T02:07:43.311Z,0.00
2023-07-06T02:08:43.374Z,0.00
2023-07-06T02:09:43.317Z,0.00
2023-07-06T02:10:43.300Z,0.00
2023-07-06T02:11:43.306Z,0.00
2023-07-06T02:12:43.287Z,0.00
2023-07-06T02:13:43.304Z,0.00
2023-07-06T02:14:43.272Z,0.00
2023-07-06T02:15:43.254Z,0.00
2023-07-06T02:16:43.300Z,0.00
2023-07-06T02:17:43.351Z,0.00
2023-07-06T02:18:43.233Z,0.00
2023-07-06T02:19:43.211Z,0.00
2023-07-06T02:20:43.245Z,0.00
2023-07-06T02:21:43.196Z,0.00
2023-07-06T02:22:43.210Z,0.00
2023-07-06T02:23:43.183Z,0.00
2023-07-06T02:24:43.187Z,0.00
2023-07-06T02:25:43.207Z,0.00
2023-07-06T02:26:43.182Z,0.00
2023-07-06T02:27:43.138Z,0.00
2023-07-06T02:28:43.182Z,1.00
2023-07-06T02:29:43.142Z,1.00
2023-07-06T02:30:43.169Z,1.00
2023-07-06T02:31:43.116Z,1.00
2023-07-06T02:32:43.135Z,1.00
2023-07-06T02:33:43.081Z,1.00
2023-07-06T02:34:43.098Z,0.00
2023-07-06T02:35:43.090Z,1.00
2023-07-06T02:36:43.081Z,1.00
2023-07-06T02:37:43.045Z,1.00
2023-07-06T02:38:43.089Z,2.00
2023-07-06T02:39:43.043Z,1.00
2023-07-06T02:40:43.052Z,2.00
2023-07-06T02:41:43.031Z,2.00
2023-07-06T02:42:43.256Z,2.00
2023-07-06T02:43:43.014Z,2.00
2023-07-06T02:44:43.032Z,4.00
2023-07-06T02:45:42.987Z,4.00
2023-07-06T02:46:43.076Z,7.00
2023-07-06T02:47:43.037Z,5.00
2023-07-06T02:48:43.021Z,5.00
2023-07-06T02:49:42.944Z,5.00
2023-07-06T02:50:42.965Z,8.00
2023-07-06T02:51:42.958Z,11.00
2023-07-06T02:52:42.935Z,10.00
2023-07-06T02:53:42.919Z,12.00
2023-07-06T02:54:42.950Z,14.00
2023-07-06T02:55:42.893Z,15.00
2023-07-06T02:56:42.917Z,17.00
2023-07-06T02:57:42.891Z,19.00
2023-07-06T02:58:42.888Z,22.00
2023-07-06T02:59:42.872Z,24.00
2023-07-06T03:00:42.885Z,27.00
2023-07-06T03:01:42.866Z,29.00
2023-07-06T03:02:42.936Z,32.00
2023-07-06T03:03:42.826Z,35.00
2023-07-06T03:04:42.857Z,39.00
2023-07-06T03:05:42.862Z,42.00
2023-07-06T03:06:42.824Z,49.00
2023-07-06T03:07:42.811Z,52.00
2023-07-06T03:08:42.840Z,57.00
2023-07-06T03:09:42.802Z,63.00
2023-07-06T03:10:42.809Z,65.00
2023-07-06T03:11:42.760Z,70.00
2023-07-06T03:12:42.760Z,76.00
2023-07-06T03:13:42.799Z,82.00
2023-07-06T03:14:42.764Z,87.00
2023-07-06T03:15:42.745Z,95.00
2023-07-06T03:16:42.751Z,102.00
2023-07-06T03:17:42.774Z,109.00
2023-07-06T03:18:42.717Z,114.00
2023-07-06T03:19:42.689Z,124.00
2023-07-06T03:20:42.743Z,130.00
2023-07-06T03:21:42.700Z,139.00
2023-07-06T03:22:42.681Z,147.00
2023-07-06T03:23:42.680Z,157.00
2023-07-06T03:24:42.694Z,169.00
2023-07-06T03:25:42.668Z,182.00
2023-07-06T03:26:42.775Z,197.00
2023-07-06T03:27:42.655Z,209.00
2023-07-06T03:28:44.125Z,225.00
2023-07-06T03:29:43.604Z,242.00
2023-07-06T03:30:42.620Z,263.00
2023-07-06T03:31:42.602Z,289.00
2023-07-06T03:32:42.697Z,303.00
2023-07-06T03:33:42.592Z,332.00
2023-07-06T03:34:42.629Z,419.00
2023-07-06T03:35:42.560Z,548.00
2023-07-06T03:36:42.571Z,586.00
2023-07-06T03:37:42.556Z,580.00
2023-07-06T03:38:42.567Z,525.00
2023-07-06T03:39:42.523Z,563.00
2023-07-06T03:40:42.536Z,559.00
2023-07-06T03:41:42.506Z,677.00
2023-07-06T03:42:42.550Z,809.00
2023-07-06T03:43:42.508Z,871.00
2023-07-06T03:44:42.505Z,894.00
2023-07-06T03:45:42.502Z,926.00
2023-07-06T03:46:42.475Z,1002.00
2023-07-06T03:47:42.482Z,1259.00
2023-07-06T03:48:42.491Z,1417.00
2023-07-06T03:49:42.437Z,1480.00
2023-07-06T03:50:42.441Z,1518.00
2023-07-06T03:51:42.423Z,1615.00
2023-07-06T03:52:42.426Z,1739.00
2023-07-06T03:53:42.419Z,1820.00
2023-07-06T03:54:42.404Z,1946.00
2023-07-06T03:55:42.466Z,2068.00
2023-07-06T03:56:42.432Z,2032.00
2023-07-06T03:57:54.575Z,2073.00
2023-07-06T03:58:43.415Z,2945.00
2023-07-06T03:59:42.366Z,3128.00
2023-07-06T04:00:42.364Z,3384.00
2023-07-06T04:01:42.399Z,3572.00
2023-07-06T04:02:42.398Z,3758.00
2023-07-06T04:03:42.362Z,4233.00
2023-07-06T04:04:42.336Z,4807.00
2023-07-06T04:05:42.302Z,5152.00
2023-07-06T04:06:42.315Z,5483.00
2023-07-06T04:07:42.299Z,5916.00
2023-07-06T04:08:43.421Z,6186.00
2023-07-06T04:09:42.296Z,6007.00
2023-07-06T04:10:42.306Z,6022.00
2023-07-06T04:11:42.268Z,6130.00
2023-07-06T04:12:42.266Z,6206.00
2023-07-06T04:13:42.301Z,6610.00
2023-07-06T04:14:42.269Z,6986.00
2023-07-06T04:15:42.247Z,7076.00
2023-07-06T04:16:42.224Z,7368.00
2023-07-06T04:17:43.430Z,7858.00
2023-07-06T04:18:42.232Z,7812.00
2023-07-06T04:19:42.197Z,7283.00
2023-07-06T04:20:42.197Z,6983.00
2023-07-06T04:21:42.183Z,7462.00
2023-07-06T04:22:42.192Z,7974.00
2023-07-06T04:23:44.747Z,8105.00
2023-07-06T04:24:42.169Z,7777.00
2023-07-06T04:25:42.140Z,7548.00
2023-07-06T04:26:42.141Z,8227.00
2023-07-06T04:27:42.112Z,8648.00
2023-07-06T04:28:42.128Z,8981.00
2023-07-06T04:29:42.112Z,8829.00
2023-07-06T04:30:42.108Z,8995.00
2023-07-06T04:31:42.218Z,9916.00
2023-07-06T04:32:42.123Z,10115.00
2023-07-06T04:33:42.066Z,9680.00
2023-07-06T04:34:42.074Z,9188.00
2023-07-06T04:35:42.065Z,8748.00
2023-07-06T04:36:42.094Z,8547.00
2023-07-06T04:37:42.036Z,9526.00
2023-07-06T04:38:42.033Z,10000.00
2023-07-06T04:39:42.023Z,10287.00
2023-07-06T04:40:42.033Z,9905.00
2023-07-06T04:41:42.023Z,9728.00
2023-07-06T04:42:42.023Z,10369.00
2023-07-06T04:43:42.037Z,10132.00
2023-07-06T04:44:41.993Z,8460.00
2023-07-06T04:45:41.988Z,8493.00
2023-07-06T04:46:42.008Z,9123.00
2023-07-06T04:47:41.967Z,9560.00
2023-07-06T04:48:41.980Z,9312.00
2023-07-06T04:49:41.925Z,9868.00
2023-07-06T04:50:41.982Z,10248.00
2023-07-06T04:51:41.909Z,9726.00
2023-07-06T04:52:41.946Z,9494.00
2023-07-06T04:53:41.924Z,9817.00
2023-07-06T04:54:41.901Z,10380.00
2023-07-06T04:55:41.903Z,10737.00
2023-07-06T04:56:41.907Z,10549.00
2023-07-06T04:57:41.869Z,10633.00
2023-07-06T04:58:41.896Z,10011.00
2023-07-06T04:59:41.849Z,10175.00
2023-07-06T05:00:41.892Z,10694.00
2023-07-06T05:01:41.867Z,10570.00
2023-07-06T05:02:41.918Z,10619.00
2023-07-06T05:03:41.877Z,10810.00
2023-07-06T05:04:41.844Z,11736.00
2023-07-06T05:05:42.210Z,12277.00
2023-07-06T05:06:41.845Z,12402.00
2023-07-06T05:07:41.873Z,11148.00
2023-07-06T05:08:41.799Z,10089.00
2023-07-06T05:09:41.816Z,9631.00
2023-07-06T05:10:41.779Z,9617.00
2023-07-06T05:11:41.761Z,9530.00
2023-07-06T05:12:41.794Z,9962.00
2023-07-06T05:13:41.849Z,10156.00
2023-07-06T05:14:42.016Z,9842.00
2023-07-06T05:15:41.743Z,9450.00
2023-07-06T05:16:41.775Z,10078.00
2023-07-06T05:17:41.881Z,10876.00
2023-07-06T05:18:41.868Z,11621.00
2023-07-06T05:19:41.694Z,12445.00
2023-07-06T05:20:41.770Z,12408.00
2023-07-06T05:21:41.684Z,11567.00
2023-07-06T05:22:41.688Z,11350.00
2023-07-06T05:23:41.703Z,11330.00
2023-07-06T05:24:41.716Z,10832.00
2023-07-06T05:25:41.664Z,11814.00
2023-07-06T05:26:41.649Z,13302.00
2023-07-06T05:27:41.631Z,12085.00
2023-07-06T05:28:41.672Z,11523.00
2023-07-06T05:29:41.639Z,10996.00
2023-07-06T05:30:41.660Z,11239.00
2023-07-06T05:31:41.601Z,11261.00
2023-07-06T05:32:41.666Z,10660.00
2023-07-06T05:33:41.624Z,10769.00
2023-07-06T05:34:41.727Z,10514.00
2023-07-06T05:35:41.573Z,10388.00
2023-07-06T05:36:41.586Z,10647.00
2023-07-06T05:37:41.560Z,9599.00
2023-07-06T05:38:41.586Z,9536.00
2023-07-06T05:39:41.553Z,9646.00
2023-07-06T05:40:41.601Z,9798.00
2023-07-06T05:41:41.534Z,10475.00
2023-07-06T05:42:41.538Z,10904.00
2023-07-06T05:43:41.551Z,10891.00
2023-07-06T05:44:41.517Z,11694.00
2023-07-06T05:45:41.503Z,11869.00
2023-07-06T05:46:41.595Z,11409.00
2023-07-06T05:47:41.506Z,12408.00
2023-07-06T05:48:41.496Z,14003.00
2023-07-06T05:49:41.503Z,13185.00
2023-07-06T05:50:41.495Z,11314.00
2023-07-06T05:51:41.467Z,10927.00
2023-07-06T05:52:41.497Z,11192.00
2023-07-06T05:53:41.468Z,11758.00
2023-07-06T05:54:41.449Z,11919.00
2023-07-06T05:55:41.459Z,11654.00
2023-07-06T05:56:41.437Z,12534.00
2023-07-06T05:57:41.442Z,13049.00
2023-07-06T05:58:41.428Z,13004.00
2023-07-06T05:59:41.410Z,12367.00
2023-07-06T06:00:41.404Z,11260.00
2023-07-06T06:01:41.467Z,10811.00
2023-07-06T06:02:41.407Z,10689.00
2023-07-06T06:03:41.420Z,10543.00
2023-07-06T06:04:41.408Z,9408.00
2023-07-06T06:05:41.524Z,8568.00
2023-07-06T06:06:41.394Z,8468.00
2023-07-06T06:07:41.356Z,8347.00
2023-07-06T06:08:41.384Z,8293.00
2023-07-06T06:09:41.332Z,8251.00
2023-07-06T06:10:41.348Z,8248.00
2023-07-06T06:11:41.339Z,8318.00
2023-07-06T06:12:41.342Z,8410.00
2023-07-06T06:13:41.357Z,8503.00
2023-07-06T06:14:41.320Z,8594.00
2023-07-06T06:15:41.288Z,8725.00
2023-07-06T06:16:41.341Z,8749.00
2023-07-06T06:17:41.440Z,8716.00
2023-07-06T06:18:43.152Z,8656.00
2023-07-06T06:19:41.280Z,8558.00
2023-07-06T06:20:41.277Z,8481.00
2023-07-06T06:21:41.257Z,8471.00
2023-07-06T06:22:41.275Z,8487.00
2023-07-06T06:23:41.242Z,8503.00
2023-07-06T06:24:41.239Z,8558.00
2023-07-06T06:25:41.242Z,8641.00
2023-07-06T06:26:41.220Z,8701.00
2023-07-06T06:27:41.206Z,8735.00
2023-07-06T06:28:41.229Z,8843.00
2023-07-06T06:29:41.213Z,8856.00
2023-07-06T06:30:41.207Z,8768.00
2023-07-06T06:31:41.248Z,8739.00
2023-07-06T06:32:41.204Z,8715.00
2023-07-06T06:33:41.228Z,8674.00
2023-07-06T06:34:41.184Z,8768.00
2023-07-06T06:35:41.144Z,8847.00
2023-07-06T06:36:41.155Z,8818.00
2023-07-06T06:37:41.173Z,8849.00
2023-07-06T06:38:41.152Z,8928.00
2023-07-06T06:39:41.202Z,8966.00
2023-07-06T06:40:41.124Z,8983.00
2023-07-06T06:41:41.101Z,10242.00
2023-07-06T06:42:41.134Z,11948.00
2023-07-06T06:43:41.094Z,13045.00
2023-07-06T06:44:41.111Z,12017.00
2023-07-06T06:45:41.093Z,11018.00
2023-07-06T06:46:41.162Z,10807.00
2023-07-06T06:47:41.112Z,10083.00
2023-07-06T06:48:41.081Z,10479.00
2023-07-06T06:49:41.050Z,10336.00
2023-07-06T06:50:41.053Z,10098.00
2023-07-06T06:51:41.046Z,10415.00
2023-07-06T06:52:41.075Z,10884.00
2023-07-06T06:53:41.018Z,10902.00
2023-07-06T06:54:41.033Z,10787.00
2023-07-06T06:55:40.998Z,10792.00
2023-07-06T06:56:41.012Z,10746.00
2023-07-06T06:57:41.070Z,10261.00
2023-07-06T06:58:42.258Z,10152.00
2023-07-06T06:59:40.982Z,10423.00
2023-07-06T07:00:41.007Z,10621.00
2023-07-06T07:01:41.023Z,10769.00
2023-07-06T07:02:41.003Z,10828.00
2023-07-06T07:03:40.975Z,10270.00
2023-07-06T07:04:40.951Z,10338.00
2023-07-06T07:05:40.931Z,10683.00
2023-07-06T07:06:40.943Z,10671.00
2023-07-06T07:07:40.931Z,9272.00
2023-07-06T07:08:40.926Z,8703.00
2023-07-06T07:09:40.938Z,8642.00
2023-07-06T07:10:40.913Z,8523.00
2023-07-06T07:11:40.892Z,8516.00
2023-07-06T07:12:40.925Z,8454.00
2023-07-06T07:13:40.930Z,8446.00
2023-07-06T07:14:40.883Z,8599.00
2023-07-06T07:15:40.872Z,8729.00
2023-07-06T07:16:40.994Z,8763.00
2023-07-06T07:17:40.861Z,8877.00
2023-07-06T07:18:40.878Z,9016.00
2023-07-06T07:19:40.869Z,9082.00
2023-07-06T07:20:40.854Z,9075.00
2023-07-06T07:21:40.813Z,9131.00
2023-07-06T07:22:40.869Z,9229.00
2023-07-06T07:23:40.825Z,9305.00
2023-07-06T07:24:40.845Z,6926.00
2023-07-06T07:25:40.787Z,9394.00
2023-07-06T07:26:40.845Z,9223.00
2023-07-06T07:27:40.773Z,9182.00
2023-07-06T07:28:40.784Z,9180.00
2023-07-06T07:29:40.775Z,9367.00
2023-07-06T07:30:40.807Z,9539.00
2023-07-06T07:31:40.793Z,9785.00
2023-07-06T07:32:40.811Z,10142.00
2023-07-06T07:33:40.748Z,8107.00
2023-07-06T07:34:40.747Z,10317.00
2023-07-06T07:35:40.714Z,10032.00
2023-07-06T07:36:40.719Z,10191.00
2023-07-06T07:37:40.779Z,10028.00
2023-07-06T07:38:40.729Z,9861.00
2023-07-06T07:39:40.738Z,3735.00
2023-07-06T07:40:40.702Z,3544.00
2023-07-06T07:41:40.679Z,3612.00
2023-07-06T07:42:40.702Z,4508.00
2023-07-06T07:43:40.662Z,3548.00
2023-07-06T07:44:40.691Z,3430.00
2023-07-06T07:45:40.729Z,3410.00
2023-07-06T07:46:40.653Z,3307.00
2023-07-06T07:47:40.643Z,3591.00
2023-07-06T07:48:40.697Z,3861.00
2023-07-06T07:49:40.661Z,3325.00
2023-07-06T07:50:40.653Z,3414.00
2023-07-06T07:51:40.610Z,3984.00
2023-07-06T07:52:40.625Z,3312.00
2023-07-06T07:53:40.868Z,3222.00
2023-07-06T07:54:40.654Z,3065.00
2023-07-06T07:55:40.599Z,3023.00
2023-07-06T07:56:40.603Z,2895.00
2023-07-06T07:57:40.586Z,2774.00
2023-07-06T07:58:40.611Z,2711.00
2023-07-06T07:59:40.567Z,2659.00
2023-07-06T08:00:40.576Z,2667.00
2023-07-06T08:01:40.635Z,2864.00
2023-07-06T08:02:40.629Z,3016.00
2023-07-06T08:03:40.576Z,7467.00
2023-07-06T08:04:40.637Z,8289.00
2023-07-06T08:05:40.561Z,3025.00
2023-07-06T08:06:40.555Z,8411.00
2023-07-06T08:07:40.499Z,8600.00
2023-07-06T08:08:40.505Z,3463.00
2023-07-06T08:09:40.517Z,3649.00
2023-07-06T08:10:40.498Z,3816.00
2023-07-06T08:11:40.506Z,3818.00
2023-07-06T08:12:40.483Z,3558.00
2023-07-06T08:13:40.514Z,3305.00
2023-07-06T08:14:40.481Z,3092.00
2023-07-06T08:15:40.483Z,3023.00
2023-07-06T08:16:40.475Z,3003.00
2023-07-06T08:17:40.510Z,3274.00
2023-07-06T08:18:40.454Z,3851.00
2023-07-06T08:19:48.154Z,8808.00
2023-07-06T08:21:01.584Z,8761.00
2023-07-06T08:22:40.442Z,8898.00
2023-07-06T08:23:40.391Z,4809.00
2023-07-06T08:24:40.407Z,9076.00
2023-07-06T08:25:40.389Z,8861.00
2023-07-06T08:26:40.407Z,8935.00
2023-07-06T08:27:40.424Z,3598.00
2023-07-06T08:28:40.371Z,3141.00
2023-07-06T08:29:40.408Z,3322.00
2023-07-06T08:30:40.358Z,7149.00
2023-07-06T08:31:40.385Z,8790.00
2023-07-06T08:32:40.374Z,8756.00
2023-07-06T08:33:40.338Z,8782.00
2023-07-06T08:34:40.339Z,8838.00
2023-07-06T08:35:40.321Z,9142.00
2023-07-06T08:36:40.319Z,9085.00
2023-07-06T08:37:40.303Z,9027.00
2023-07-06T08:38:40.358Z,9055.00
2023-07-06T08:39:40.321Z,9069.00
2023-07-06T08:40:40.304Z,9002.00
2023-07-06T08:41:40.328Z,8920.00
2023-07-06T08:42:40.286Z,8849.00
2023-07-06T08:43:40.289Z,8816.00
2023-07-06T08:44:40.261Z,8881.00
2023-07-06T08:45:40.318Z,8935.00
2023-07-06T08:46:40.481Z,9121.00
2023-07-06T08:47:40.292Z,9300.00
2023-07-06T08:48:40.237Z,9521.00
2023-07-06T08:49:40.200Z,10053.00
2023-07-06T08:50:40.212Z,10456.00
2023-07-06T08:51:40.212Z,9943.00
2023-07-06T08:52:40.204Z,10786.00
2023-07-06T08:53:40.171Z,6810.00
2023-07-06T08:54:40.201Z,3867.00
2023-07-06T08:55:40.201Z,11423.00
2023-07-06T08:56:40.240Z,11259.00
2023-07-06T08:57:40.719Z,11103.00
2023-07-06T08:58:40.165Z,10673.00
2023-07-06T08:59:40.133Z,10154.00
2023-07-06T09:00:40.157Z,9836.00
2023-07-06T09:01:40.162Z,9631.00
2023-07-06T09:02:40.178Z,9591.00
2023-07-06T09:03:40.165Z,9568.00
2023-07-06T09:04:40.110Z,9616.00
2023-07-06T09:05:40.149Z,9642.00
2023-07-06T09:06:40.106Z,9482.00
2023-07-06T09:07:40.099Z,7354.00
2023-07-06T09:08:40.112Z,9443.00
2023-07-06T09:09:40.081Z,9349.00
2023-07-06T09:10:40.083Z,9075.00
2023-07-06T09:11:40.115Z,9151.00
2023-07-06T09:12:40.074Z,9291.00
2023-07-06T09:13:40.063Z,9025.00
2023-07-06T09:14:40.042Z,8795.00
2023-07-06T09:15:40.028Z,8580.00
2023-07-06T09:16:40.173Z,8475.00
2023-07-06T09:17:40.068Z,3617.00
2023-07-06T09:18:40.077Z,8385.00
2023-07-06T09:19:40.015Z,4680.00
2023-07-06T09:20:40.036Z,3941.00
2023-07-06T09:21:39.986Z,3464.00
2023-07-06T09:22:39.991Z,3416.00
2023-07-06T09:23:39.991Z,3851.00
2023-07-06T09:24:40.012Z,8321.00
2023-07-06T09:25:40.004Z,6080.00
2023-07-06T09:26:39.984Z,3467.00
2023-07-06T09:27:39.971Z,3298.00
2023-07-06T09:28:39.951Z,3658.00
2023-07-06T09:29:39.937Z,7910.00
2023-07-06T09:30:40.021Z,7567.00
2023-07-06T09:31:39.918Z,4308.00
2023-07-06T09:32:39.957Z,4116.00
2023-07-06T09:33:39.908Z,7629.00
2023-07-06T09:34:39.935Z,7565.00
2023-07-06T09:35:39.921Z,7536.00
2023-07-06T09:36:39.930Z,7441.00
2023-07-06T09:37:39.887Z,7331.00
2023-07-06T09:38:39.907Z,7269.00
2023-07-06T09:39:39.869Z,3756.00
2023-07-06T09:40:39.893Z,3465.00
2023-07-06T09:41:39.854Z,5033.00
2023-07-06T09:42:39.879Z,3389.00
2023-07-06T09:43:39.859Z,4954.00
2023-07-06T09:44:39.864Z,7028.00
2023-07-06T09:45:39.826Z,6968.00
2023-07-06T09:46:39.896Z,4037.00
2023-07-06T09:47:39.842Z,6882.00
2023-07-06T09:48:39.888Z,6757.00
2023-07-06T09:49:39.817Z,6682.00
2023-07-06T09:50:39.911Z,6627.00
2023-07-06T09:51:40.179Z,6561.00
2023-07-06T09:52:39.793Z,6552.00
2023-07-06T09:53:39.786Z,6647.00
2023-07-06T09:54:39.800Z,6628.00
2023-07-06T09:55:39.775Z,3767.00
2023-07-06T09:56:39.764Z,3403.00
2023-07-06T09:57:39.743Z,3663.00
2023-07-06T09:58:39.771Z,2982.00
2023-07-06T09:59:39.752Z,2931.00
2023-07-06T10:00:39.744Z,2944.00
2023-07-06T10:01:39.767Z,2829.00
2023-07-06T10:02:39.737Z,2767.00
2023-07-06T10:03:39.724Z,2777.00
2023-07-06T10:04:39.746Z,2788.00
2023-07-06T10:05:39.709Z,2726.00
2023-07-06T10:06:39.726Z,2719.00
2023-07-06T10:07:39.685Z,2936.00
2023-07-06T10:08:39.691Z,3026.00
2023-07-06T10:09:39.666Z,3026.00
2023-07-06T10:10:39.691Z,3006.00
2023-07-06T10:11:39.668Z,5844.00
2023-07-06T10:12:39.728Z,5750.00
2023-07-06T10:13:39.731Z,5618.00
2023-07-06T10:14:39.680Z,2946.00
2023-07-06T10:15:39.617Z,3236.00
2023-07-06T10:16:39.661Z,3033.00
2023-07-06T10:17:39.735Z,5576.00
2023-07-06T10:18:39.612Z,5397.00
2023-07-06T10:19:39.601Z,5317.00
2023-07-06T10:20:39.592Z,5054.00
2023-07-06T10:21:39.579Z,4881.00
2023-07-06T10:22:39.590Z,4805.00
2023-07-06T10:23:39.578Z,4803.00
2023-07-06T10:24:39.558Z,4783.00
2023-07-06T10:25:39.535Z,4721.00
2023-07-06T10:26:39.564Z,3609.00
2023-07-06T10:27:39.526Z,4729.00
2023-07-06T10:28:39.670Z,4680.00
2023-07-06T10:29:39.521Z,3272.00
2023-07-06T10:30:39.622Z,2389.00
2023-07-06T10:31:39.509Z,2710.00
2023-07-06T10:32:39.573Z,2665.00
2023-07-06T10:33:39.484Z,4608.00
2023-07-06T10:34:39.566Z,4736.00
2023-07-06T10:35:39.557Z,4557.00
2023-07-06T10:36:39.476Z,3184.00
2023-07-06T10:37:39.461Z,4813.00
2023-07-06T10:38:39.471Z,4717.00
2023-07-06T10:39:39.452Z,4571.00
2023-07-06T10:40:39.473Z,4498.00
2023-07-06T10:41:39.484Z,4421.00
2023-07-06T10:42:39.434Z,4344.00
2023-07-06T10:43:39.410Z,4283.00
2023-07-06T10:44:39.430Z,4222.00
2023-07-06T10:45:39.465Z,4281.00
2023-07-06T10:46:39.487Z,2679.00
2023-07-06T10:47:39.437Z,2346.00
2023-07-06T10:48:39.400Z,2367.00
2023-07-06T10:49:39.372Z,2415.00
2023-07-06T10:50:39.403Z,2605.00
2023-07-06T10:51:39.347Z,4290.00
2023-07-06T10:52:39.391Z,4183.00
2023-07-06T10:53:39.337Z,4099.00
2023-07-06T10:54:39.418Z,4038.00
2023-07-06T10:55:39.343Z,2167.00
2023-07-06T10:56:39.337Z,2152.00
2023-07-06T10:57:39.350Z,2283.00
2023-07-06T10:58:39.310Z,2596.00
2023-07-06T10:59:39.308Z,3669.00
2023-07-06T11:00:39.328Z,2317.00
2023-07-06T11:01:39.317Z,3287.00
2023-07-06T11:02:39.324Z,3884.00
2023-07-06T11:03:39.390Z,2692.00
2023-07-06T11:04:39.920Z,2331.00
2023-07-06T11:05:39.260Z,2440.00
2023-07-06T11:06:39.264Z,2978.00
2023-07-06T11:07:39.247Z,4221.00
2023-07-06T11:08:39.257Z,4184.00
2023-07-06T11:09:39.226Z,4212.00
2023-07-06T11:10:39.711Z,4201.00
2023-07-06T11:11:39.231Z,4081.00
2023-07-06T11:12:39.255Z,3984.00
2023-07-06T11:13:39.255Z,3872.00
2023-07-06T11:14:39.224Z,3829.00
2023-07-06T11:15:39.205Z,2295.00
2023-07-06T11:16:39.362Z,2796.00
2023-07-06T11:17:39.188Z,2319.00
2023-07-06T11:18:39.185Z,2236.00
2023-07-06T11:19:39.151Z,3847.00
2023-07-06T11:20:39.174Z,2161.00
2023-07-06T11:21:39.137Z,3327.00
2023-07-06T11:22:39.159Z,3676.00
2023-07-06T11:23:39.134Z,3690.00
2023-07-06T11:24:39.162Z,3706.00
2023-07-06T11:25:39.096Z,3094.00
2023-07-06T11:26:39.182Z,3403.00
2023-07-06T11:27:39.129Z,3590.00
2023-07-06T11:28:39.085Z,3571.00
2023-07-06T11:29:39.078Z,3535.00
2023-07-06T11:30:39.086Z,3542.00
2023-07-06T11:31:39.086Z,3560.00
2023-07-06T11:32:39.176Z,3537.00
2023-07-06T11:33:39.092Z,3479.00
2023-07-06T11:34:39.704Z,3419.00
2023-07-06T11:35:39.086Z,2043.00
2023-07-06T11:36:39.029Z,1948.00
2023-07-06T11:37:53.198Z,2017.00
2023-07-06T11:38:40.031Z,2007.00
2023-07-06T11:39:39.029Z,1990.00
2023-07-06T11:40:39.035Z,2396.00
2023-07-06T11:41:38.992Z,2600.00
2023-07-06T11:42:39.024Z,1937.00
2023-07-06T11:43:38.977Z,1855.00
2023-07-06T11:44:38.978Z,1973.00
2023-07-06T11:45:38.968Z,2862.00
2023-07-06T11:46:39.063Z,3409.00
2023-07-06T11:47:39.053Z,3182.00
2023-07-06T11:48:38.950Z,3417.00
2023-07-06T11:49:38.925Z,3503.00
2023-07-06T11:50:38.964Z,3560.00
2023-07-06T11:51:38.952Z,3568.00
2023-07-06T11:52:38.951Z,3549.00
2023-07-06T11:53:38.913Z,3527.00
2023-07-06T11:54:38.933Z,3549.00
2023-07-06T11:55:38.909Z,3542.00
2023-07-06T11:56:38.981Z,3540.00
2023-07-06T11:57:38.893Z,3501.00
2023-07-06T11:58:38.889Z,2030.00
2023-07-06T11:59:38.883Z,2186.00
2023-07-06T12:00:38.931Z,1978.00
2023-07-06T12:01:38.921Z,3427.00
2023-07-06T12:02:38.904Z,3444.00
2023-07-06T12:03:38.979Z,3449.00
2023-07-06T12:04:38.880Z,3465.00
2023-07-06T12:05:38.912Z,3417.00
2023-07-06T12:06:38.831Z,3362.00
2023-07-06T12:07:38.800Z,3279.00
2023-07-06T12:08:38.868Z,2884.00
2023-07-06T12:09:38.809Z,2728.00
2023-07-06T12:10:38.818Z,3193.00
2023-07-06T12:11:38.897Z,1994.00
2023-07-06T12:12:38.799Z,2235.00
2023-07-06T12:13:38.811Z,3107.00
2023-07-06T12:14:38.787Z,3122.00
2023-07-06T12:15:38.820Z,3147.00
2023-07-06T12:16:38.851Z,3130.00
2023-07-06T12:17:38.787Z,3081.00
2023-07-06T12:18:38.750Z,2635.00
2023-07-06T12:19:38.739Z,3089.00
2023-07-06T12:20:38.742Z,3150.00
2023-07-06T12:21:38.759Z,1854.00